createdAt,value
2022-12-22T00:01:05.832Z,33.20
2022-12-22T00:03:50.948Z,33.20
2022-12-22T00:06:35.813Z,33.20
2022-12-22T00:09:20.661Z,33.20
2022-12-22T00:12:05.805Z,33.20
2022-12-22T00:14:51.120Z,33.20
2022-12-22T00:17:45.103Z,33.20
2022-12-22T00:20:31.887Z,33.20
2022-12-22T00:23:16.797Z,33.20
2022-12-22T00:26:01.487Z,33.10
2022-12-22T00:28:46.699Z,33.10
2022-12-22T00:31:31.741Z,33.10
2022-12-22T00:34:16.451Z,33.20
2022-12-22T00:37:01.906Z,33.80
2022-12-22T00:39:46.740Z,33.10
2022-12-22T00:42:31.709Z,33.20
2022-12-22T00:45:16.612Z,33.10
2022-12-22T00:48:02.613Z,33.10
2022-12-22T00:50:53.536Z,33.10
2022-12-22T00:53:38.356Z,33.10
2022-12-22T00:56:24.235Z,33.10
2022-12-22T00:59:10.606Z,33.10
2022-12-22T01:01:55.574Z,33.10
2022-12-22T01:04:40.477Z,33.10
2022-12-22T01:07:27.928Z,33.10
2022-12-22T01:10:12.751Z,33.10
2022-12-22T01:12:58.830Z,33.10
2022-12-22T01:15:44.760Z,33.10
2022-12-22T01:18:29.621Z,33.10
2022-12-22T01:21:14.442Z,33.10
2022-12-22T01:23:59.367Z,33.10
2022-12-22T01:26:44.855Z,33.10
2022-12-22T01:29:29.678Z,33.00
2022-12-22T01:32:14.669Z,33.00
2022-12-22T01:34:59.530Z,33.00
2022-12-22T01:37:44.468Z,33.00
2022-12-22T01:40:38.500Z,33.00
2022-12-22T01:43:39.933Z,33.00
2022-12-22T01:46:45.523Z,33.00
2022-12-22T01:49:59.169Z,33.00
2022-12-22T01:52:49.582Z,33.00
2022-12-22T01:55:42.798Z,33.00
2022-12-22T01:58:42.627Z,33.00
2022-12-22T02:01:27.560Z,32.90
2022-12-22T02:04:12.439Z,33.00
2022-12-22T02:07:00.424Z,32.90
2022-12-22T02:09:54.364Z,32.90
2022-12-22T02:13:07.443Z,32.90
2022-12-22T02:16:04.443Z,33.00
2022-12-22T02:19:17.934Z,32.90
2022-12-22T02:22:33.560Z,32.90
2022-12-22T02:25:33.056Z,32.90
2022-12-22T02:28:19.795Z,32.90
2022-12-22T02:31:09.306Z,33.60
2022-12-22T02:33:54.247Z,32.90
2022-12-22T02:36:57.476Z,32.90
2022-12-22T02:40:16.726Z,32.90
2022-12-22T02:43:18.559Z,32.80
2022-12-22T02:46:23.652Z,32.80
2022-12-22T02:49:14.546Z,32.80
2022-12-22T02:52:06.976Z,32.80
2022-12-22T02:54:53.148Z,32.80
2022-12-22T02:57:38.796Z,32.80
2022-12-22T03:00:24.543Z,32.80
2022-12-22T03:03:09.668Z,32.80
2022-12-22T03:05:54.356Z,32.80
2022-12-22T03:08:39.229Z,32.80
2022-12-22T03:11:24.031Z,32.80
2022-12-22T03:14:08.810Z,32.80
2022-12-22T03:16:53.595Z,32.80
2022-12-22T03:19:38.614Z,32.90
2022-12-22T03:22:23.445Z,32.80
2022-12-22T03:25:08.295Z,32.80
2022-12-22T03:27:34.346Z,32.80
2022-12-22T03:30:00.444Z,32.80
2022-12-22T03:32:26.485Z,32.80
2022-12-22T03:34:52.531Z,32.80
2022-12-22T03:37:18.578Z,32.80
2022-12-22T03:39:44.654Z,32.80
2022-12-22T03:42:30.379Z,32.70
2022-12-22T03:45:15.245Z,32.70
2022-12-22T03:47:41.461Z,32.70
2022-12-22T03:50:07.706Z,32.70
2022-12-22T03:52:33.781Z,32.70
2022-12-22T03:54:59.867Z,32.70
2022-12-22T03:57:25.957Z,32.80
2022-12-22T03:59:52.018Z,32.70
2022-12-22T04:02:18.297Z,32.70
2022-12-22T04:04:44.470Z,32.70
2022-12-22T04:07:10.537Z,32.80
2022-12-22T04:09:56.565Z,32.70
2022-12-22T04:12:41.386Z,32.70
2022-12-22T04:15:08.130Z,32.70
2022-12-22T04:17:34.188Z,32.70
2022-12-22T04:20:00.279Z,32.70
2022-12-22T04:22:26.400Z,32.70
2022-12-22T04:24:52.446Z,32.70
2022-12-22T04:27:18.496Z,32.70
2022-12-22T04:29:44.579Z,32.70
2022-12-22T04:32:10.747Z,32.70
2022-12-22T04:34:36.843Z,32.70
2022-12-22T04:37:14.690Z,32.60
2022-12-22T04:39:43.124Z,32.70
2022-12-22T04:42:09.221Z,32.70
2022-12-22T04:44:35.318Z,32.70
2022-12-22T04:47:01.415Z,32.70
2022-12-22T04:49:27.499Z,32.70
2022-12-22T04:51:53.664Z,32.70
2022-12-22T04:54:19.863Z,32.70
2022-12-22T04:56:45.923Z,32.70
2022-12-22T04:59:12.095Z,32.70
2022-12-22T05:01:38.349Z,32.70
2022-12-22T05:04:04.627Z,32.70
2022-12-22T05:06:30.755Z,32.70
2022-12-22T05:08:56.880Z,32.70
2022-12-22T05:11:22.983Z,32.70
2022-12-22T05:13:49.016Z,32.70
2022-12-22T05:16:16.793Z,32.80
2022-12-22T05:18:44.510Z,32.80
2022-12-22T05:21:14.097Z,32.80
2022-12-22T05:23:41.773Z,32.90
2022-12-22T05:26:08.694Z,32.90
2022-12-22T05:28:34.871Z,33.00
2022-12-22T05:31:06.182Z,33.00
2022-12-22T05:33:32.623Z,33.10
2022-12-22T05:35:58.767Z,33.10
2022-12-22T05:38:25.503Z,33.20
2022-12-22T05:40:51.688Z,33.10
2022-12-22T05:43:17.849Z,33.10
2022-12-22T05:45:45.152Z,33.20
2022-12-22T05:48:11.950Z,33.10
2022-12-22T05:50:38.548Z,33.20
2022-12-22T05:53:06.010Z,33.20
2022-12-22T05:55:32.609Z,33.20
2022-12-22T05:58:01.987Z,33.20
2022-12-22T06:00:30.564Z,33.30
2022-12-22T06:02:57.097Z,33.20
2022-12-22T06:05:23.339Z,33.50
2022-12-22T06:07:49.436Z,33.70
2022-12-22T06:10:15.602Z,33.80
2022-12-22T06:12:43.196Z,33.90
2022-12-22T06:15:12.823Z,34.00
2022-12-22T06:17:44.711Z,34.00
2022-12-22T06:20:13.002Z,34.10
2022-12-22T06:22:39.214Z,34.30
2022-12-22T06:25:05.737Z,34.30
2022-12-22T06:27:31.833Z,34.40
2022-12-22T06:29:57.939Z,34.50
2022-12-22T06:32:24.046Z,34.50
2022-12-22T06:34:50.197Z,34.60
2022-12-22T06:37:16.286Z,34.60
2022-12-22T06:39:42.406Z,34.50
2022-12-22T06:42:28.479Z,34.50
2022-12-22T06:44:54.933Z,34.50
2022-12-22T06:47:21.517Z,34.60
2022-12-22T06:49:47.922Z,35.40
2022-12-22T06:52:14.007Z,34.70
2022-12-22T06:54:40.076Z,34.70
2022-12-22T06:57:06.156Z,34.80
2022-12-22T06:59:32.283Z,34.80
2022-12-22T07:01:58.418Z,34.80
2022-12-22T07:04:25.298Z,34.90
2022-12-22T07:06:51.459Z,34.90
2022-12-22T07:09:17.514Z,35.00
2022-12-22T07:11:43.588Z,34.90
2022-12-22T07:14:11.055Z,35.60
2022-12-22T07:16:37.198Z,35.00
2022-12-22T07:19:03.301Z,35.10
2022-12-22T07:21:29.592Z,35.10
2022-12-22T07:23:55.695Z,35.10
2022-12-22T07:26:21.858Z,35.10
2022-12-22T07:28:47.930Z,35.20
2022-12-22T07:31:16.630Z,35.10
2022-12-22T07:33:42.776Z,35.20
2022-12-22T07:36:15.731Z,35.20
2022-12-22T07:38:44.048Z,35.20
2022-12-22T07:41:30.702Z,35.20
2022-12-22T07:43:58.992Z,35.30
2022-12-22T07:46:27.047Z,35.40
2022-12-22T07:49:11.903Z,35.40
2022-12-22T07:51:40.281Z,35.40
2022-12-22T07:54:08.648Z,35.50
2022-12-22T07:56:35.238Z,35.50
2022-12-22T07:59:01.981Z,35.50
2022-12-22T08:01:28.341Z,35.40
2022-12-22T08:03:54.680Z,35.50
2022-12-22T08:06:20.898Z,35.50
2022-12-22T08:08:46.960Z,35.50
2022-12-22T08:11:13.225Z,35.60
2022-12-22T08:13:39.895Z,35.70
2022-12-22T08:16:08.697Z,35.60
2022-12-22T08:18:35.657Z,35.70
2022-12-22T08:21:02.779Z,35.80
2022-12-22T08:23:29.003Z,35.80
2022-12-22T08:26:00.969Z,35.90
2022-12-22T08:28:28.153Z,35.90
2022-12-22T08:30:54.348Z,35.80
2022-12-22T08:33:21.019Z,35.90
2022-12-22T08:35:47.100Z,35.90
2022-12-22T08:38:14.073Z,36.00
2022-12-22T08:40:44.152Z,35.90
2022-12-22T08:43:10.938Z,35.90
2022-12-22T08:45:37.061Z,35.80
2022-12-22T08:48:03.432Z,35.90
2022-12-22T08:50:29.508Z,35.80
2022-12-22T08:53:02.856Z,35.90
2022-12-22T08:55:29.079Z,36.00
2022-12-22T08:57:56.297Z,36.00
2022-12-22T09:00:24.442Z,35.90
2022-12-22T09:02:51.345Z,35.90
2022-12-22T09:05:18.478Z,35.90
2022-12-22T09:07:46.563Z,35.90
2022-12-22T09:10:13.694Z,36.00
2022-12-22T09:12:40.143Z,36.00
2022-12-22T09:15:08.875Z,36.00
2022-12-22T09:17:35.784Z,36.00
2022-12-22T09:20:03.845Z,36.00
2022-12-22T09:22:30.075Z,35.90
2022-12-22T09:24:56.192Z,35.90
2022-12-22T09:27:22.339Z,35.90
2022-12-22T09:29:48.406Z,35.90
2022-12-22T09:32:14.556Z,36.00
2022-12-22T09:34:40.763Z,36.00
2022-12-22T09:37:06.903Z,36.00
2022-12-22T09:39:38.316Z,36.00
2022-12-22T09:42:04.576Z,36.00
2022-12-22T09:44:39.101Z,36.00
2022-12-22T09:47:24.152Z,36.10
2022-12-22T09:49:52.455Z,36.10
2022-12-22T09:52:24.664Z,36.10
2022-12-22T09:54:50.783Z,36.10
2022-12-22T09:57:18.910Z,36.00
2022-12-22T09:59:45.212Z,36.10
2022-12-22T10:02:20.936Z,36.10
2022-12-22T10:05:01.892Z,36.10
2022-12-22T10:07:37.801Z,36.10
2022-12-22T10:10:24.096Z,36.10
2022-12-22T10:12:55.424Z,36.10
2022-12-22T10:15:22.465Z,36.10
2022-12-22T10:17:53.215Z,36.10
2022-12-22T10:20:21.230Z,36.20
2022-12-22T10:22:55.036Z,36.20
2022-12-22T10:25:39.853Z,36.20
2022-12-22T10:28:21.458Z,36.30
2022-12-22T10:30:47.914Z,36.20
2022-12-22T10:33:17.663Z,36.30
2022-12-22T10:35:48.518Z,36.40
2022-12-22T10:38:32.425Z,36.40
2022-12-22T10:41:11.757Z,36.40
2022-12-22T10:43:45.231Z,36.30
2022-12-22T10:46:11.674Z,36.30
2022-12-22T10:48:39.487Z,36.20
2022-12-22T10:51:08.648Z,36.20
2022-12-22T10:53:54.131Z,36.20
2022-12-22T10:56:26.484Z,36.20
2022-12-22T10:59:15.491Z,36.20
2022-12-22T11:01:41.661Z,36.10
2022-12-22T11:04:23.075Z,36.20
2022-12-22T11:06:49.691Z,36.20
2022-12-22T11:09:33.187Z,36.30
2022-12-22T11:12:12.828Z,36.30
2022-12-22T11:15:03.756Z,36.40
2022-12-22T11:17:43.810Z,37.10
2022-12-22T11:20:34.462Z,36.40
2022-12-22T11:23:09.307Z,36.50
2022-12-22T11:25:40.547Z,36.50
2022-12-22T11:28:18.699Z,36.50
2022-12-22T11:31:14.317Z,36.50
2022-12-22T11:34:21.398Z,36.50
2022-12-22T11:36:59.893Z,36.50
2022-12-22T11:39:51.915Z,36.60
2022-12-22T11:43:05.670Z,36.60
2022-12-22T11:45:43.889Z,36.70
2022-12-22T11:48:57.040Z,36.70
2022-12-22T11:51:56.525Z,36.70
2022-12-22T11:54:47.998Z,36.70
2022-12-22T11:57:50.201Z,36.70
2022-12-22T12:00:18.544Z,36.70
2022-12-22T12:02:59.447Z,36.80
2022-12-22T12:05:31.432Z,36.80
2022-12-22T12:08:23.378Z,36.80
2022-12-22T12:11:08.205Z,36.90
2022-12-22T12:13:40.210Z,36.90
2022-12-22T12:16:30.531Z,36.90
2022-12-22T12:19:21.588Z,37.00
2022-12-22T12:21:57.019Z,37.10
2022-12-22T12:24:28.529Z,37.10
2022-12-22T12:27:16.271Z,37.00
2022-12-22T12:33:10.324Z,37.20
2022-12-22T12:35:48.543Z,37.30
2022-12-22T12:41:30.964Z,37.40
2022-12-22T12:43:58.005Z,37.60
2022-12-22T12:46:52.351Z,38.20
2022-12-22T12:49:34.746Z,37.60
2022-12-22T12:52:05.202Z,37.60
2022-12-22T12:54:42.080Z,37.70
2022-12-22T12:57:47.597Z,37.60
2022-12-22T13:00:39.463Z,37.70
2022-12-22T13:03:19.937Z,37.80
2022-12-22T13:05:59.620Z,37.70
2022-12-22T13:09:48.403Z,37.80
2022-12-22T13:12:12.339Z,37.80
2022-12-22T13:15:27.592Z,37.90
2022-12-22T13:17:53.771Z,37.90
2022-12-22T13:20:27.171Z,37.90
2022-12-22T13:22:56.224Z,37.90
2022-12-22T13:25:26.883Z,38.00
2022-12-22T13:27:56.645Z,38.10
2022-12-22T13:30:23.216Z,37.90
2022-12-22T13:32:49.814Z,37.90
2022-12-22T13:35:32.170Z,38.00
2022-12-22T13:37:59.658Z,38.10
2022-12-22T13:40:30.374Z,38.10
2022-12-22T13:43:04.951Z,38.10
2022-12-22T13:45:48.362Z,38.20
2022-12-22T13:48:21.285Z,38.20
2022-12-22T13:50:52.195Z,38.10
2022-12-22T13:54:06.475Z,38.10
2022-12-22T13:56:38.930Z,38.10
2022-12-22T13:59:17.787Z,38.10
2022-12-22T14:01:55.605Z,38.20
2022-12-22T14:04:22.140Z,38.20
2022-12-22T14:06:48.240Z,38.20
2022-12-22T14:09:20.307Z,38.20
2022-12-22T14:12:04.974Z,38.30
2022-12-22T14:14:35.946Z,38.30
2022-12-22T14:17:03.068Z,38.30
2022-12-22T14:19:35.438Z,38.40
2022-12-22T14:22:07.644Z,38.30
2022-12-22T14:24:46.412Z,38.40
2022-12-22T14:27:38.051Z,38.30
2022-12-22T14:30:14.737Z,38.40
2022-12-22T14:32:45.748Z,38.40
2022-12-22T14:35:32.028Z,38.40
2022-12-22T14:38:18.692Z,38.40
2022-12-22T14:40:45.450Z,38.50
2022-12-22T14:43:18.545Z,38.60
2022-12-22T14:45:46.712Z,38.60
2022-12-22T14:48:29.348Z,38.60
2022-12-22T14:50:56.124Z,38.60
2022-12-22T14:53:32.258Z,38.60
2022-12-22T14:55:58.524Z,38.60
2022-12-22T14:58:39.044Z,38.70
2022-12-22T15:01:29.182Z,38.70
2022-12-22T15:04:07.832Z,38.70
2022-12-22T15:06:40.108Z,38.80
2022-12-22T15:09:06.701Z,38.80
2022-12-22T15:11:35.385Z,38.80
2022-12-22T15:14:02.492Z,38.80
2022-12-22T15:16:28.697Z,38.80
2022-12-22T15:18:55.115Z,38.80
2022-12-22T15:21:22.283Z,38.80
2022-12-22T15:23:48.479Z,38.80
2022-12-22T15:26:14.771Z,38.80
2022-12-22T15:28:40.881Z,38.80
2022-12-22T15:31:14.480Z,38.80
2022-12-22T15:33:40.957Z,38.90
2022-12-22T15:36:10.484Z,38.80
2022-12-22T15:38:39.053Z,38.90
2022-12-22T15:41:06.560Z,38.80
2022-12-22T15:43:57.209Z,38.80
2022-12-22T15:46:21.488Z,38.80
2022-12-22T15:48:47.633Z,38.90
2022-12-22T15:51:27.173Z,38.90
2022-12-22T15:53:55.350Z,38.90
2022-12-22T15:56:24.908Z,38.80
2022-12-22T15:58:51.459Z,38.80
2022-12-22T16:01:17.733Z,38.80
2022-12-22T16:03:44.092Z,38.80
2022-12-22T16:06:15.309Z,38.80
2022-12-22T16:08:45.386Z,38.60
2022-12-22T16:11:11.724Z,38.60
2022-12-22T16:13:38.162Z,38.50
2022-12-22T16:16:04.926Z,38.50
2022-12-22T16:18:31.804Z,38.50
2022-12-22T16:21:07.245Z,38.40
2022-12-22T16:23:35.128Z,38.40
2022-12-22T16:26:02.972Z,38.50
2022-12-22T16:28:29.274Z,39.10
2022-12-22T16:30:55.683Z,38.40
2022-12-22T16:33:21.806Z,38.30
2022-12-22T16:35:48.822Z,38.30
2022-12-22T16:38:18.844Z,38.30
2022-12-22T16:40:51.399Z,38.30
2022-12-22T16:46:15.596Z,38.20
2022-12-22T16:48:51.030Z,38.20
2022-12-22T16:51:22.554Z,38.20
2022-12-22T16:53:48.881Z,38.20
2022-12-22T16:56:21.957Z,38.10
2022-12-22T16:58:48.581Z,38.10
2022-12-22T17:01:43.269Z,38.00
2022-12-22T17:04:17.683Z,38.10
2022-12-22T17:06:47.210Z,38.10
2022-12-22T17:09:21.170Z,38.10
2022-12-22T17:11:47.950Z,38.00
2022-12-22T17:14:27.510Z,38.00
2022-12-22T17:16:53.817Z,38.00
2022-12-22T17:19:19.943Z,37.90
2022-12-22T17:21:46.788Z,37.90
2022-12-22T17:24:16.525Z,37.90
2022-12-22T17:26:43.072Z,37.90
2022-12-22T17:29:18.437Z,37.90
2022-12-22T17:31:44.676Z,37.90
2022-12-22T17:34:16.502Z,37.90
2022-12-22T17:36:44.999Z,37.90
2022-12-22T17:39:14.544Z,37.80
2022-12-22T17:41:41.218Z,37.80
2022-12-22T17:44:15.780Z,37.80
2022-12-22T17:46:42.139Z,37.90
2022-12-22T17:49:08.321Z,37.90
2022-12-22T17:51:34.525Z,37.90
2022-12-22T17:54:00.828Z,37.90
2022-12-22T17:56:28.646Z,37.80
2022-12-22T17:58:54.729Z,37.80
2022-12-22T18:01:29.452Z,37.80
2022-12-22T18:03:56.314Z,37.80
2022-12-22T18:06:30.679Z,37.60
2022-12-22T18:08:57.370Z,37.60
2022-12-22T18:11:23.995Z,37.50
2022-12-22T18:13:51.099Z,37.50
2022-12-22T18:16:19.662Z,37.50
2022-12-22T18:18:46.138Z,37.40
2022-12-22T18:21:21.053Z,37.40
2022-12-22T18:23:50.655Z,37.30
2022-12-22T18:26:21.724Z,37.20
2022-12-22T18:28:48.430Z,37.20
2022-12-22T18:31:14.645Z,37.20
2022-12-22T18:33:40.876Z,37.10
2022-12-22T18:36:28.599Z,37.10
2022-12-22T18:38:55.129Z,37.10
2022-12-22T18:41:23.498Z,37.10
2022-12-22T18:43:50.433Z,37.00
2022-12-22T18:46:17.477Z,36.90
2022-12-22T18:48:44.115Z,36.90
2022-12-22T18:51:19.579Z,36.80
2022-12-22T18:53:45.850Z,36.80
2022-12-22T18:56:13.000Z,36.80
2022-12-22T18:58:40.302Z,36.80
2022-12-22T19:01:11.018Z,36.70
2022-12-22T19:03:37.336Z,36.70
2022-12-22T19:06:03.675Z,36.70
2022-12-22T19:08:30.621Z,36.60
2022-12-22T19:10:59.780Z,36.70
2022-12-22T19:13:36.231Z,36.60
2022-12-22T19:16:04.134Z,36.50
2022-12-22T19:18:30.388Z,36.50
2022-12-22T19:20:57.070Z,36.50
2022-12-22T19:23:25.156Z,36.40
2022-12-22T19:25:54.602Z,36.40
2022-12-22T19:28:23.827Z,36.40
2022-12-22T19:30:51.031Z,36.40
2022-12-22T19:33:22.848Z,36.40
2022-12-22T19:35:48.934Z,36.40
2022-12-22T19:38:24.154Z,36.30
2022-12-22T19:40:52.678Z,36.30
2022-12-22T19:43:19.376Z,36.30
2022-12-22T19:45:50.347Z,36.30
2022-12-22T19:48:18.833Z,36.30
2022-12-22T19:50:45.787Z,36.30
2022-12-22T19:53:12.231Z,36.20
2022-12-22T19:55:43.796Z,36.20
2022-12-22T19:58:25.576Z,36.20
2022-12-22T20:00:52.443Z,36.20
2022-12-22T20:03:24.257Z,36.20
2022-12-22T20:05:50.904Z,36.20
2022-12-22T20:08:17.520Z,36.20
2022-12-22T20:10:45.059Z,36.20
2022-12-22T20:13:16.042Z,36.10
2022-12-22T20:15:43.264Z,36.20
2022-12-22T20:18:21.169Z,36.10
2022-12-22T20:20:57.742Z,36.10
2022-12-22T20:23:25.265Z,36.10
2022-12-22T20:25:55.573Z,36.10
2022-12-22T20:28:24.945Z,36.10
2022-12-22T20:30:52.231Z,36.10
2022-12-22T20:33:20.809Z,36.10
2022-12-22T20:35:48.532Z,36.00
2022-12-22T20:38:28.870Z,36.00
2022-12-22T20:40:54.975Z,36.00
2022-12-22T20:43:25.344Z,36.00
2022-12-22T20:45:55.319Z,36.00
2022-12-22T20:48:43.333Z,36.00
2022-12-22T20:51:16.385Z,36.00
2022-12-22T20:53:43.394Z,36.00
2022-12-22T20:56:19.074Z,36.00
2022-12-22T20:58:46.075Z,35.90
2022-12-22T21:01:12.506Z,35.90
2022-12-22T21:03:38.686Z,36.00
2022-12-22T21:06:43.050Z,35.90
2022-12-22T21:09:12.811Z,35.90
2022-12-22T21:11:38.911Z,35.90
2022-12-22T21:14:05.044Z,35.90
2022-12-22T21:16:33.421Z,35.90
2022-12-22T21:19:00.511Z,35.90
2022-12-22T21:21:26.869Z,35.90
2022-12-22T21:23:52.986Z,35.90
2022-12-22T21:26:28.146Z,35.80
2022-12-22T21:28:54.432Z,35.90
2022-12-22T21:31:20.691Z,35.90
2022-12-22T21:33:47.224Z,35.90
2022-12-22T21:36:22.047Z,35.90
2022-12-22T21:38:51.152Z,35.80
2022-12-22T21:41:17.257Z,35.90
2022-12-22T21:43:43.439Z,35.80
2022-12-22T21:46:13.231Z,35.80
2022-12-22T21:48:39.436Z,35.80
2022-12-22T21:51:05.566Z,35.80
2022-12-22T21:53:31.658Z,35.80
2022-12-22T21:55:57.744Z,35.80
2022-12-22T21:58:23.829Z,35.80
2022-12-22T22:00:50.036Z,35.80
2022-12-22T22:03:16.309Z,35.70
2022-12-22T22:05:42.844Z,35.80
2022-12-22T22:08:11.423Z,35.80
2022-12-22T22:10:42.459Z,35.70
2022-12-22T22:13:13.095Z,35.70
2022-12-22T22:15:39.263Z,35.70
2022-12-22T22:18:07.594Z,35.70
2022-12-22T22:20:34.399Z,35.70
2022-12-22T22:23:00.884Z,35.70
2022-12-22T22:25:27.386Z,35.70
2022-12-22T22:27:53.665Z,35.70
2022-12-22T22:30:22.257Z,35.70
2022-12-22T22:32:48.781Z,35.70
2022-12-22T22:35:15.672Z,35.70
2022-12-22T22:37:41.799Z,35.70
2022-12-22T22:40:09.285Z,35.70
2022-12-22T22:42:36.414Z,35.60
2022-12-22T22:45:03.400Z,35.60
2022-12-22T22:47:29.590Z,35.60
2022-12-22T22:49:55.751Z,35.60
2022-12-22T22:52:21.918Z,35.60
2022-12-22T22:54:48.165Z,35.60
2022-12-22T22:57:14.836Z,35.60
2022-12-22T22:59:41.044Z,35.50
2022-12-22T23:02:07.280Z,35.60
2022-12-22T23:04:33.470Z,35.50
2022-12-22T23:06:59.981Z,35.50
2022-12-22T23:09:26.065Z,35.50
2022-12-22T23:11:52.753Z,35.50
2022-12-22T23:14:20.296Z,35.50
2022-12-22T23:16:49.566Z,35.60
2022-12-22T23:19:15.970Z,35.50
2022-12-22T23:21:42.438Z,35.50
2022-12-22T23:24:08.932Z,35.50
2022-12-22T23:26:35.152Z,35.50
2022-12-22T23:29:03.632Z,35.40
2022-12-22T23:31:32.164Z,35.50
2022-12-22T23:33:58.461Z,35.50
2022-12-22T23:36:24.920Z,35.50
2022-12-22T23:38:51.291Z,35.50
2022-12-22T23:41:17.975Z,35.40
2022-12-22T23:43:44.042Z,35.40
2022-12-22T23:46:13.217Z,35.50
2022-12-22T23:48:39.841Z,35.50
2022-12-22T23:51:07.401Z,35.50
2022-12-22T23:53:34.247Z,35.50
2022-12-22T23:56:00.497Z,35.50
2022-12-22T23:58:26.884Z,35.50
